Time;durP1;ratioP1;P1;durP2;ratioP2;P2;SDS_P1;SDS_P2;PMS_P1;PMS_P2;Temp;Humidity;BMP_temperature;BMP_pressure;BME280_temperature;BME280_humidity;BME280_pressure;Samples;Min_cycle;Max_cycle;Signal;HPM_P1;HPM_P2
2022/04/14 00:01:47;;;;;;;35.38;27.23;;;12.80;99.90;;;;;;5117190;28;20031;-68
2022/04/14 00:04:13;;;;;;;37.47;27.98;;;12.80;99.90;;;;;;5117898;28;20039;-69
2022/04/14 00:06:39;;;;;;;36.08;27.60;;;12.80;99.90;;;;;;5116986;28;20280;-68
2022/04/14 00:09:05;;;;;;;34.40;27.77;;;12.80;99.90;;;;;;5117822;28;20027;-66
2022/04/14 00:11:31;;;;;;;35.90;27.40;;;12.80;99.90;;;;;;5118003;28;20387;-68
2022/04/14 00:13:57;;;;;;;35.13;26.63;;;12.90;99.90;;;;;;5117742;28;20037;-69
2022/04/14 00:16:23;;;;;;;36.83;27.17;;;12.90;99.90;;;;;;5117634;28;20036;-68
2022/04/14 00:18:48;;;;;;;37.42;27.15;;;13.00;99.90;;;;;;5117941;28;20040;-68
2022/04/14 00:21:14;;;;;;;37.78;28.63;;;12.90;99.90;;;;;;5117679;28;20027;-68
2022/04/14 00:23:40;;;;;;;36.38;28.02;;;12.90;99.90;;;;;;5117637;28;20027;-68
2022/04/14 00:26:06;;;;;;;37.10;28.77;;;12.80;99.90;;;;;;5117806;28;20165;-68
2022/04/14 00:28:32;;;;;;;38.50;27.85;;;12.80;99.90;;;;;;5100058;28;20076;-69
2022/04/14 00:30:59;;;;;;;38.42;28.70;;;12.80;99.90;;;;;;5117667;28;20038;-67
2022/04/14 00:33:26;;;;;;;39.15;28.25;;;12.70;99.90;;;;;;5117482;28;20338;-67
2022/04/14 00:35:52;;;;;;;38.00;29.10;;;12.80;99.90;;;;;;5117376;28;20035;-67
2022/04/14 00:38:18;;;;;;;38.15;28.70;;;12.90;99.90;;;;;;5116677;28;20031;-68
2022/04/14 00:40:44;;;;;;;34.30;26.88;;;12.90;99.90;;;;;;5117768;28;20099;-68
2022/04/14 00:43:10;;;;;;;37.45;27.65;;;12.90;99.90;;;;;;5116900;28;20047;-68
2022/04/14 00:45:36;;;;;;;39.80;28.55;;;12.80;99.90;;;;;;5117345;28;20041;-69
2022/04/14 00:48:02;;;;;;;38.63;28.35;;;12.70;99.90;;;;;;5117268;28;20062;-69
2022/04/14 00:50:28;;;;;;;41.50;29.10;;;12.70;99.90;;;;;;5117331;28;20081;-69
2022/04/14 00:52:54;;;;;;;36.08;27.63;;;12.70;99.90;;;;;;5117280;28;20077;-67
2022/04/14 00:55:20;;;;;;;37.08;29.25;;;12.70;99.90;;;;;;5120839;28;20059;-68
2022/04/14 00:57:46;;;;;;;40.65;29.38;;;12.70;99.90;;;;;;5121526;28;20059;-68
2022/04/14 01:00:12;;;;;;;37.10;28.75;;;12.80;99.90;;;;;;5120676;28;20031;-67
2022/04/14 01:02:38;;;;;;;38.85;29.02;;;12.80;99.90;;;;;;5121417;28;20024;-69
2022/04/14 01:05:04;;;;;;;37.67;28.35;;;12.70;99.90;;;;;;5121392;28;20106;-68
2022/04/14 01:07:35;;;;;;;35.95;28.02;;;12.70;99.90;;;;;;5120408;28;20043;-67
2022/04/14 01:10:02;;;;;;;38.25;28.40;;;12.70;99.90;;;;;;5121474;28;20035;-68
2022/04/14 01:12:30;;;;;;;37.42;28.30;;;12.70;99.90;;;;;;5121136;28;20035;-69
2022/04/14 01:14:56;;;;;;;38.45;28.58;;;12.70;99.90;;;;;;5121760;28;20046;-68
2022/04/14 01:17:22;;;;;;;41.33;29.15;;;12.70;99.90;;;;;;5121203;28;20360;-68
2022/04/14 01:19:48;;;;;;;40.45;30.05;;;12.70;99.90;;;;;;5120412;28;20035;-68
2022/04/14 01:22:30;;;;;;;42.08;30.25;;;12.70;99.90;;;;;;5120318;28;20039;-68
2022/04/14 01:24:58;;;;;;;38.30;28.83;;;12.70;99.90;;;;;;5120311;28;20071;-68
2022/04/14 01:27:28;;;;;;;39.55;28.75;;;12.60;99.90;;;;;;5120171;28;20039;-67
2022/04/14 01:29:54;;;;;;;38.33;28.52;;;12.50;99.90;;;;;;5120820;28;20035;-68
2022/04/14 01:32:21;;;;;;;40.45;29.13;;;12.60;99.90;;;;;;5121048;28;20024;-68
2022/04/14 01:34:49;;;;;;;39.47;29.58;;;12.50;99.90;;;;;;5120757;28;20027;-67
2022/04/14 01:37:15;;;;;;;36.92;28.80;;;12.40;99.90;;;;;;5120854;28;20042;-67
2022/04/14 01:39:41;;;;;;;43.00;31.05;;;12.40;99.90;;;;;;5120946;28;20428;-67
2022/04/14 01:42:07;;;;;;;45.38;31.67;;;12.50;99.90;;;;;;5120810;28;20032;-67
2022/04/14 01:44:34;;;;;;;40.35;30.52;;;12.40;99.90;;;;;;5119748;28;20078;-68
2022/04/14 01:47:00;;;;;;;39.70;31.05;;;12.40;99.90;;;;;;5120418;28;20023;-68
2022/04/14 01:49:26;;;;;;;39.85;30.15;;;12.40;99.90;;;;;;5121066;28;20039;-68
2022/04/14 01:51:52;;;;;;;40.90;30.48;;;12.40;99.90;;;;;;5119745;28;20039;-67
2022/04/14 01:54:17;;;;;;;40.92;29.85;;;12.40;99.90;;;;;;5119738;28;20088;-68
2022/04/14 01:56:45;;;;;;;42.15;29.95;;;12.30;99.90;;;;;;5120296;28;20039;-67
2022/04/14 01:59:11;;;;;;;41.45;30.50;;;12.40;99.90;;;;;;5120333;28;20097;-68
2022/04/14 02:01:37;;;;;;;40.85;29.65;;;12.30;99.90;;;;;;5119544;28;20040;-67
2022/04/14 02:04:05;;;;;;;38.03;28.60;;;12.20;99.90;;;;;;5120857;28;20096;-68
2022/04/14 02:06:31;;;;;;;40.47;28.95;;;12.20;99.90;;;;;;5119457;28;20031;-68
2022/04/14 02:08:57;;;;;;;37.50;28.52;;;12.10;99.90;;;;;;5120097;28;20027;-68
2022/04/14 02:11:23;;;;;;;37.58;28.45;;;12.00;99.90;;;;;;5119381;28;20126;-68
2022/04/14 02:13:49;;;;;;;41.20;29.33;;;12.10;99.90;;;;;;5119929;28;20024;-68
2022/04/14 02:16:15;;;;;;;40.15;29.60;;;12.00;99.90;;;;;;5119953;28;20035;-66
2022/04/14 02:18:42;;;;;;;46.15;30.45;;;12.00;99.90;;;;;;5119863;28;20085;-68
2022/04/14 02:21:08;;;;;;;44.88;32.03;;;11.90;99.90;;;;;;5102070;28;20087;-68
2022/04/14 02:23:34;;;;;;;44.38;30.55;;;11.80;99.90;;;;;;5119828;28;20114;-68
2022/04/14 02:25:59;;;;;;;41.35;30.58;;;11.70;99.90;;;;;;5120144;28;20024;-67
2022/04/14 02:28:25;;;;;;;37.70;28.83;;;11.80;99.90;;;;;;5120208;28;20031;-67
2022/04/14 02:30:51;;;;;;;42.72;30.52;;;11.80;99.90;;;;;;5120170;28;20020;-67
2022/04/14 02:33:17;;;;;;;43.25;31.05;;;11.80;99.90;;;;;;5119654;28;20316;-67
2022/04/14 02:35:43;;;;;;;42.92;30.50;;;11.90;99.90;;;;;;5119544;28;20024;-67
2022/04/14 02:38:09;;;;;;;40.88;30.02;;;11.80;99.90;;;;;;5119566;28;20035;-68
2022/04/14 02:40:35;;;;;;;41.38;31.20;;;11.80;99.90;;;;;;5119527;28;20043;-67
2022/04/14 02:43:01;;;;;;;42.95;30.42;;;11.70;99.90;;;;;;5119253;28;20043;-67
2022/04/14 02:45:27;;;;;;;42.88;30.58;;;11.70;99.90;;;;;;5101889;28;20118;-68
2022/04/14 02:47:54;;;;;;;44.28;32.17;;;11.70;99.90;;;;;;5119258;28;20045;-68
2022/04/14 02:50:21;;;;;;;44.92;31.13;;;11.60;99.90;;;;;;5119321;28;20027;-68
2022/04/14 02:52:48;;;;;;;46.33;32.35;;;11.60;99.90;;;;;;5119250;28;20028;-67
2022/04/14 02:55:14;;;;;;;44.63;30.80;;;11.60;99.90;;;;;;5118515;28;20077;-67
2022/04/14 02:57:41;;;;;;;45.28;31.45;;;11.50;99.90;;;;;;5119040;28;20307;-67
2022/04/14 03:00:11;;;;;;;45.17;32.30;;;11.50;99.90;;;;;;5119482;28;20348;-68
2022/04/14 03:02:41;;;;;;;49.65;32.88;;;11.50;99.90;;;;;;5119068;28;20043;-69
2022/04/14 03:05:08;;;;;;;45.38;31.70;;;11.40;99.90;;;;;;5119625;28;20043;-68
2022/04/14 03:07:34;;;;;;;50.00;33.15;;;11.40;99.90;;;;;;5118104;28;20038;-68
2022/04/14 03:10:01;;;;;;;46.80;32.83;;;11.40;99.90;;;;;;5118960;28;20024;-68
2022/04/14 03:12:39;;;;;;;50.70;33.45;;;11.40;99.90;;;;;;5119029;28;20107;-68
2022/04/14 03:15:05;;;;;;;47.92;33.30;;;11.50;99.90;;;;;;5119116;28;20098;-68
2022/04/14 03:17:31;;;;;;;49.35;33.65;;;11.40;99.90;;;;;;5117030;28;20484;-68
2022/04/14 03:19:57;;;;;;;51.75;35.10;;;11.40;99.90;;;;;;5118737;28;20063;-68
2022/04/14 03:22:22;;;;;;;52.92;36.85;;;11.30;99.90;;;;;;5118785;28;20280;-68
2022/04/14 03:24:48;;;;;;;58.05;38.75;;;11.20;99.90;;;;;;5100932;28;20031;-68
2022/04/14 03:27:14;;;;;;;53.90;34.60;;;11.10;99.90;;;;;;5118581;28;20040;-68
2022/04/14 03:29:41;;;;;;;50.72;34.75;;;11.10;99.90;;;;;;5117849;28;20040;-68
2022/04/14 03:32:07;;;;;;;53.47;36.83;;;11.10;99.90;;;;;;5101387;28;20032;-68
2022/04/14 03:34:33;;;;;;;52.53;34.92;;;11.10;99.90;;;;;;5118202;28;20042;-67
2022/04/14 03:36:58;;;;;;;55.13;35.45;;;11.10;99.90;;;;;;5117623;28;20398;-68
2022/04/14 03:39:24;;;;;;;55.13;36.47;;;11.00;99.90;;;;;;5118393;28;20035;-68
2022/04/14 03:41:50;;;;;;;56.10;36.35;;;11.10;99.90;;;;;;5118584;28;20418;-67
2022/04/14 03:44:16;;;;;;;55.03;37.45;;;11.10;99.90;;;;;;5118251;28;20044;-68
2022/04/14 03:46:41;;;;;;;57.40;38.22;;;11.10;99.90;;;;;;5118160;28;20038;-68
2022/04/14 03:49:08;;;;;;;55.08;37.70;;;11.10;99.90;;;;;;5118171;28;20095;-67
2022/04/14 03:51:34;;;;;;;56.03;38.38;;;11.10;99.90;;;;;;5118140;28;20116;-68
2022/04/14 03:54:00;;;;;;;68.10;43.88;;;11.00;99.90;;;;;;5117321;28;20028;-67
2022/04/14 03:56:25;;;;;;;68.25;47.30;;;11.00;99.90;;;;;;5118046;28;20028;-67
2022/04/14 03:58:51;;;;;;;67.88;47.25;;;10.90;99.90;;;;;;5118045;28;20039;-68
2022/04/14 04:01:17;;;;;;;62.25;44.95;;;10.90;99.90;;;;;;5117854;28;20117;-68
2022/04/14 04:03:43;;;;;;;62.03;43.03;;;10.80;99.90;;;;;;5118474;28;20100;-67
2022/04/14 04:06:08;;;;;;;59.30;41.63;;;10.80;99.90;;;;;;5116993;28;20288;-69
2022/04/14 04:08:34;;;;;;;63.78;44.25;;;10.80;99.90;;;;;;5117771;28;20019;-69
2022/04/14 04:11:00;;;;;;;63.72;43.75;;;10.90;99.90;;;;;;5117039;28;20173;-68
2022/04/14 04:13:26;;;;;;;63.53;43.50;;;11.00;99.90;;;;;;5117725;28;20047;-69
2022/04/14 04:15:52;;;;;;;67.63;42.38;;;11.00;99.90;;;;;;5117616;28;20030;-68
2022/04/14 04:18:17;;;;;;;62.50;42.95;;;11.00;99.90;;;;;;5117672;28;20429;-68
2022/04/14 04:20:43;;;;;;;67.30;43.13;;;11.00;99.90;;;;;;5116935;28;20044;-68
2022/04/14 04:23:09;;;;;;;65.75;43.70;;;10.90;99.90;;;;;;5117683;28;20028;-68
2022/04/14 04:25:36;;;;;;;62.80;42.63;;;11.00;99.90;;;;;;5117593;28;20031;-67
2022/04/14 04:28:02;;;;;;;68.97;41.70;;;11.00;99.90;;;;;;5117254;28;20039;-68
2022/04/14 04:30:28;;;;;;;61.13;41.10;;;10.90;99.90;;;;;;5117513;28;20291;-68
2022/04/14 04:32:54;;;;;;;61.55;40.65;;;10.80;99.90;;;;;;5116773;28;20403;-68
2022/04/14 04:35:20;;;;;;;56.53;38.78;;;10.80;99.90;;;;;;5117467;28;20024;-67
2022/04/14 04:37:46;;;;;;;59.60;40.55;;;10.70;99.90;;;;;;5117392;28;20038;-69
2022/04/14 04:40:12;;;;;;;57.88;37.88;;;10.70;99.90;;;;;;5117486;28;20354;-67
2022/04/14 04:42:38;;;;;;;54.65;36.95;;;10.50;99.90;;;;;;5116382;28;20189;-68
2022/04/14 04:45:04;;;;;;;53.80;37.40;;;10.50;99.90;;;;;;5118052;28;20024;-68
2022/04/14 04:47:30;;;;;;;49.97;35.55;;;10.50;99.90;;;;;;5117291;28;20047;-68
2022/04/14 04:49:55;;;;;;;58.97;37.35;;;10.40;99.90;;;;;;5116691;28;20341;-68
2022/04/14 04:52:21;;;;;;;54.95;37.05;;;10.40;99.90;;;;;;5117294;28;20115;-67
2022/04/14 04:54:47;;;;;;;59.95;37.63;;;10.40;99.90;;;;;;5117206;28;20097;-68
2022/04/14 04:57:13;;;;;;;57.95;36.38;;;10.40;99.90;;;;;;5117108;28;20096;-68
2022/04/14 04:59:38;;;;;;;57.60;37.95;;;10.40;99.90;;;;;;5117178;28;20035;-66
2022/04/14 05:02:05;;;;;;;56.42;38.88;;;10.40;99.90;;;;;;5116491;28;20066;-67
2022/04/14 05:04:30;;;;;;;60.05;39.25;;;10.50;99.90;;;;;;5117177;28;20092;-68
2022/04/14 05:06:56;;;;;;;65.55;40.63;;;10.50;99.90;;;;;;5117069;28;20039;-68
2022/04/14 05:09:23;;;;;;;61.53;40.88;;;10.60;99.90;;;;;;5117138;28;20035;-67
2022/04/14 05:11:49;;;;;;;62.15;42.10;;;10.70;99.90;;;;;;5116332;28;20036;-68
2022/04/14 05:14:15;;;;;;;70.43;43.35;;;10.70;99.90;;;;;;5116960;28;20419;-67
2022/04/14 05:16:41;;;;;;;64.15;41.85;;;10.70;99.90;;;;;;5116306;28;20360;-67
2022/04/14 05:19:07;;;;;;;63.72;41.92;;;10.60;99.90;;;;;;5116327;28;20119;-66
2022/04/14 05:21:33;;;;;;;65.38;42.70;;;10.60;99.90;;;;;;5116926;28;20116;-67
2022/04/14 05:23:59;;;;;;;67.68;42.47;;;10.70;99.90;;;;;;5116313;28;20403;-67
2022/04/14 05:26:25;;;;;;;69.32;44.30;;;10.70;99.90;;;;;;5116821;28;20103;-66
2022/04/14 05:28:50;;;;;;;66.57;44.17;;;10.80;99.90;;;;;;5116819;28;20035;-67
2022/04/14 05:31:16;;;;;;;67.90;44.30;;;10.80;99.90;;;;;;5117194;28;20035;-66
2022/04/14 05:33:42;;;;;;;77.82;46.72;;;10.80;99.90;;;;;;5117324;28;20031;-67
2022/04/14 05:36:08;;;;;;;70.30;45.92;;;10.80;99.90;;;;;;5116939;28;20409;-67
2022/04/14 05:38:34;;;;;;;63.20;43.05;;;10.80;99.90;;;;;;5116875;28;20039;-66
2022/04/14 05:40:59;;;;;;;64.85;42.95;;;10.80;99.90;;;;;;5119235;28;20120;-66
2022/04/14 05:43:27;;;;;;;61.58;41.83;;;10.80;99.90;;;;;;5120513;28;20050;-66
2022/04/14 05:45:54;;;;;;;62.42;43.40;;;10.80;99.90;;;;;;5120743;28;20059;-65
2022/04/14 05:48:20;;;;;;;62.88;42.22;;;10.90;99.90;;;;;;5120429;28;20043;-65
2022/04/14 05:50:48;;;;;;;59.47;43.25;;;10.90;99.90;;;;;;5119587;28;20281;-65
2022/04/14 05:53:14;;;;;;;66.75;44.28;;;10.90;99.90;;;;;;5119736;28;20418;-66
2022/04/14 05:55:44;;;;;;;67.18;45.53;;;10.90;99.90;;;;;;5119671;28;20035;-66
2022/04/14 05:58:12;;;;;;;72.18;48.28;;;11.00;99.90;;;;;;5119721;28;20111;-66
2022/04/14 06:00:38;;;;;;;71.25;51.95;;;11.10;99.90;;;;;;5120185;28;20062;-66
2022/04/14 06:03:04;;;;;;;75.43;52.85;;;11.20;99.90;;;;;;5120142;28;20299;-66
2022/04/14 06:05:31;;;;;;;71.93;49.13;;;11.30;99.90;;;;;;5120277;28;20024;-68
2022/04/14 06:07:57;;;;;;;76.35;51.25;;;11.30;99.90;;;;;;5119271;28;20054;-67
2022/04/14 06:10:24;;;;;;;71.00;49.33;;;11.40;99.90;;;;;;5119216;28;20028;-67
2022/04/14 06:12:51;;;;;;;71.53;47.20;;;11.50;99.90;;;;;;5119328;28;20387;-67
2022/04/14 06:15:18;;;;;;;70.90;48.90;;;11.50;99.90;;;;;;5119860;28;20303;-65
2022/04/14 06:17:44;;;;;;;69.43;46.45;;;11.60;99.90;;;;;;5119958;28;20034;-67
2022/04/14 06:20:11;;;;;;;64.10;44.53;;;11.60;99.90;;;;;;5119058;28;20041;-68
2022/04/14 06:22:42;;;;;;;68.32;44.72;;;11.70;99.90;;;;;;5119816;28;20039;-67
2022/04/14 06:25:12;;;;;;;61.97;42.55;;;11.70;99.90;;;;;;5119017;28;20122;-68
2022/04/14 06:27:42;;;;;;;62.30;42.63;;;11.70;99.90;;;;;;5119646;28;20114;-66
2022/04/14 06:30:10;;;;;;;56.53;40.40;;;11.80;99.90;;;;;;5119669;28;20040;-68
2022/04/14 06:32:36;;;;;;;55.42;40.25;;;12.00;99.90;;;;;;5119695;28;20312;-68
2022/04/14 06:35:07;;;;;;;56.75;39.35;;;12.00;99.90;;;;;;5118897;28;20059;-67
2022/04/14 06:37:34;;;;;;;51.33;39.17;;;12.10;99.90;;;;;;5119664;28;20035;-69
2022/04/14 06:40:00;;;;;;;43.28;32.03;;;12.10;99.90;;;;;;5119486;28;20035;-68
2022/04/14 06:42:25;;;;;;;49.03;35.28;;;12.60;99.90;;;;;;5119450;28;20310;-66
2022/04/14 06:44:53;;;;;;;45.80;32.72;;;12.50;99.90;;;;;;5119062;28;20398;-68
2022/04/14 06:47:21;;;;;;;40.75;30.42;;;12.30;99.90;;;;;;5119304;28;20039;-68
2022/04/14 06:49:46;;;;;;;39.28;28.52;;;12.30;99.90;;;;;;5119393;28;20024;-68
2022/04/14 06:52:12;;;;;;;44.33;29.15;;;12.30;99.90;;;;;;5119317;28;20024;-68
2022/04/14 06:54:38;;;;;;;37.97;26.50;;;12.30;99.90;;;;;;5119603;28;20024;-68
2022/04/14 06:57:04;;;;;;;29.52;24.40;;;12.30;99.90;;;;;;5119206;28;20088;-69
2022/04/14 06:59:30;;;;;;;32.00;25.02;;;12.50;99.90;;;;;;5119144;28;20038;-69
2022/04/14 07:01:56;;;;;;;31.05;24.48;;;12.70;99.90;;;;;;5119015;28;20123;-70
2022/04/14 07:04:22;;;;;;;30.20;23.58;;;12.90;99.90;;;;;;5118953;28;20307;-70
2022/04/14 07:06:47;;;;;;;27.55;20.15;;;13.00;99.90;;;;;;5118922;28;20078;-67
2022/04/14 07:09:13;;;;;;;27.20;19.55;;;13.30;99.90;;;;;;5118968;28;20374;-70
2022/04/14 07:11:39;;;;;;;28.63;19.70;;;13.60;99.90;;;;;;5118191;28;20040;-69
2022/04/14 07:14:05;;;;;;;24.52;19.92;;;13.60;99.90;;;;;;5118173;28;20443;-68
2022/04/14 07:16:30;;;;;;;23.02;18.63;;;13.70;99.90;;;;;;5118104;28;20036;-69
2022/04/14 07:18:56;;;;;;;29.77;19.33;;;13.70;99.90;;;;;;5118823;28;20345;-70
2022/04/14 07:21:22;;;;;;;33.80;19.55;;;13.60;99.90;;;;;;5118533;28;20118;-70
2022/04/14 07:23:48;;;;;;;25.70;17.33;;;13.70;99.90;;;;;;5117929;28;20032;-70
2022/04/14 07:26:13;;;;;;;28.15;18.23;;;13.80;99.90;;;;;;5117835;28;20032;-70
2022/04/14 07:28:39;;;;;;;26.25;16.40;;;13.90;99.90;;;;;;5117921;28;20118;-69
2022/04/14 07:31:08;;;;;;;19.65;15.38;;;13.80;99.90;;;;;;5117944;28;20424;-68
2022/04/14 07:33:34;;;;;;;21.45;15.23;;;13.90;99.90;;;;;;5117880;28;20020;-69
2022/04/14 07:36:00;;;;;;;22.70;13.68;;;13.90;99.90;;;;;;5118326;28;20032;-69
2022/04/14 07:38:26;;;;;;;24.73;15.18;;;13.90;99.90;;;;;;5118322;28;20295;-69
2022/04/14 07:40:52;;;;;;;21.95;14.70;;;14.00;99.90;;;;;;5118255;28;20042;-69
2022/04/14 07:43:19;;;;;;;20.95;14.25;;;14.00;99.90;;;;;;5118111;28;20355;-69
2022/04/14 07:45:45;;;;;;;18.20;13.52;;;14.20;99.90;;;;;;5118192;28;20043;-70
2022/04/14 07:48:11;;;;;;;20.88;14.00;;;14.30;99.90;;;;;;5118122;28;20027;-69
2022/04/14 07:50:38;;;;;;;21.45;14.35;;;14.40;99.90;;;;;;5118384;28;20354;-69
2022/04/14 07:53:04;;;;;;;19.05;13.98;;;14.40;99.90;;;;;;5118050;28;20092;-69
2022/04/14 07:55:33;;;;;;;20.15;14.30;;;14.50;99.90;;;;;;5118039;28;20427;-68
2022/04/14 07:58:07;;;;;;;22.27;14.38;;;14.50;99.90;;;;;;5117988;28;20046;-67
2022/04/14 08:00:34;;;;;;;20.13;13.18;;;14.40;99.90;;;;;;5118117;28;20031;-68
2022/04/14 08:03:02;;;;;;;19.63;12.68;;;14.30;99.90;;;;;;5117318;28;20046;-68
2022/04/14 08:05:28;;;;;;;17.50;12.88;;;14.20;99.90;;;;;;5117815;28;20085;-69
2022/04/14 08:07:53;;;;;;;18.70;12.73;;;14.30;99.90;;;;;;5117705;28;20032;-71
2022/04/14 08:10:20;;;;;;;18.05;12.45;;;14.40;99.90;;;;;;5117871;28;20020;-69
2022/04/14 08:12:47;;;;;;;21.17;12.57;;;14.70;99.90;;;;;;5118088;28;20291;-69
2022/04/14 08:15:13;;;;;;;18.73;12.10;;;14.60;99.90;;;;;;5117933;28;20023;-68
2022/04/14 08:17:41;;;;;;;19.67;12.18;;;14.60;99.90;;;;;;5117745;28;20309;-69
2022/04/14 08:20:08;;;;;;;19.42;12.70;;;14.50;99.90;;;;;;5117653;28;20055;-69
2022/04/14 08:23:03;;;;;;;19.02;12.07;;;14.60;99.90;;;;;;5117767;28;20031;-69
2022/04/14 08:25:35;;;;;;;20.67;12.73;;;14.70;99.90;;;;;;5117684;28;20023;-68
2022/04/14 08:28:03;;;;;;;21.50;12.50;;;14.80;99.90;;;;;;5116799;28;20116;-70
2022/04/14 08:30:30;;;;;;;20.02;11.90;;;15.00;99.90;;;;;;5117841;28;20291;-69
2022/04/14 08:32:59;;;;;;;17.35;9.50;;;15.20;99.90;;;;;;5116649;28;20028;-69
2022/04/14 08:35:27;;;;;;;14.05;8.13;;;15.20;99.90;;;;;;5117231;28;20409;-69
2022/04/14 08:37:54;;;;;;;19.58;8.63;;;15.20;99.90;;;;;;5116792;28;20027;-68
2022/04/14 08:40:22;;;;;;;12.98;8.43;;;15.20;99.90;;;;;;5117495;28;20310;-69
2022/04/14 08:42:51;;;;;;;13.82;8.30;;;15.20;99.90;;;;;;5116554;28;20422;-71
2022/04/14 08:45:20;;;;;;;13.18;7.60;;;15.40;99.90;;;;;;5116896;28;20343;-69
2022/04/14 08:47:49;;;;;;;14.77;8.48;;;15.50;99.90;;;;;;5116509;28;20101;-68
2022/04/14 08:50:16;;;;;;;13.25;8.75;;;15.60;99.90;;;;;;5116958;28;20035;-69
2022/04/14 08:52:42;;;;;;;12.50;8.45;;;15.80;99.90;;;;;;5117403;28;20085;-69
2022/04/14 08:55:11;;;;;;;14.60;9.00;;;16.00;99.90;;;;;;5117770;28;20417;-70
2022/04/14 08:57:37;;;;;;;17.10;9.35;;;16.10;99.90;;;;;;5117142;28;20038;-69
2022/04/14 09:00:08;;;;;;;13.57;9.40;;;16.00;99.90;;;;;;5116502;28;20048;-69
2022/04/14 09:02:35;;;;;;;13.48;8.65;;;16.30;99.90;;;;;;5116906;28;20313;-70
2022/04/14 09:05:03;;;;;;;16.10;10.55;;;16.50;99.90;;;;;;5117772;28;20039;-67
2022/04/14 09:07:29;;;;;;;14.05;11.13;;;16.50;99.90;;;;;;5117205;28;20384;-68
2022/04/14 09:09:54;;;;;;;16.52;11.40;;;16.00;99.90;;;;;;5117181;28;20032;-69
2022/04/14 09:12:20;;;;;;;15.90;10.00;;;15.70;99.90;;;;;;5116490;28;20357;-70
2022/04/14 09:14:49;;;;;;;14.00;8.15;;;15.70;99.90;;;;;;5117537;28;20343;-69
2022/04/14 09:17:15;;;;;;;15.02;9.73;;;16.00;99.90;;;;;;5103799;28;20096;-71
2022/04/14 09:19:41;;;;;;;15.55;10.50;;;16.40;99.90;;;;;;5121738;28;20027;-70
2022/04/14 09:22:07;;;;;;;16.25;11.00;;;16.50;99.90;;;;;;5121751;28;20096;-70
2022/04/14 09:24:40;;;;;;;16.13;10.48;;;16.50;99.90;;;;;;5121506;28;20111;-70
2022/04/14 09:27:07;;;;;;;14.02;9.98;;;16.40;99.90;;;;;;5120342;28;20031;-69
2022/04/14 09:29:33;;;;;;;17.15;10.27;;;16.40;99.90;;;;;;5121754;28;20047;-68
2022/04/14 09:31:59;;;;;;;18.08;9.60;;;16.30;99.90;;;;;;5122256;28;20035;-70
2022/04/14 09:34:51;;;;;;;16.83;9.68;;;16.10;99.90;;;;;;5122070;28;20024;-68
2022/04/14 09:37:18;;;;;;;17.05;10.43;;;16.60;99.90;;;;;;5124157;28;20051;-70
2022/04/14 09:39:55;;;;;;;13.50;10.07;;;17.00;99.90;;;;;;5123018;28;20043;-71
2022/04/14 09:42:26;;;;;;;18.40;9.35;;;17.30;99.90;;;;;;5120364;28;20429;-70
2022/04/14 09:44:52;;;;;;;13.73;9.52;;;17.00;99.90;;;;;;5120214;28;20046;-71
2022/04/14 09:47:36;;;;;;;13.02;9.32;;;17.20;99.90;;;;;;5120936;28;20040;-68
2022/04/14 09:50:03;;;;;;;15.23;9.80;;;17.20;99.90;;;;;;5120825;28;20153;-67
2022/04/14 09:52:28;;;;;;;15.77;9.50;;;16.90;99.90;;;;;;5122085;28;20028;-70
2022/04/14 09:55:08;;;;;;;13.85;9.25;;;16.90;99.90;;;;;;5123427;28;20038;-69
2022/04/14 09:57:34;;;;;;;14.10;8.38;;;17.10;99.90;;;;;;5103198;28;20106;-69
2022/04/14 10:00:00;;;;;;;14.65;8.43;;;17.00;99.90;;;;;;5120376;28;20172;-69
2022/04/14 10:02:26;;;;;;;11.98;8.38;;;17.20;99.90;;;;;;5119692;28;20406;-69
2022/04/14 10:04:52;;;;;;;14.90;9.55;;;17.30;99.90;;;;;;5102644;28;20346;-69
2022/04/14 10:07:19;;;;;;;17.88;9.60;;;17.70;99.90;;;;;;5121106;28;20034;-70
2022/04/14 10:09:48;;;;;;;14.75;9.07;;;18.30;99.90;;;;;;5121952;28;20096;-68
2022/04/14 10:12:34;;;;;;;11.70;7.97;;;18.60;99.90;;;;;;5122211;28;20341;-72
2022/04/14 10:15:03;;;;;;;15.13;12.68;;;19.00;99.90;;;;;;5121888;28;20063;-71
2022/04/14 10:17:40;;;;;;;23.35;14.93;;;19.10;99.90;;;;;;5121280;28;20372;-69
2022/04/14 10:20:08;;;;;;;21.92;13.73;;;19.60;99.90;;;;;;5121227;28;20097;-70
2022/04/14 10:22:35;;;;;;;18.85;12.93;;;19.50;99.90;;;;;;5120298;28;20026;-70
2022/04/14 10:25:02;;;;;;;17.27;12.13;;;19.40;99.90;;;;;;5119952;28;20040;-69
2022/04/14 10:27:32;;;;;;;17.33;10.70;;;19.60;99.90;;;;;;5119465;27;20451;-69
2022/04/14 10:29:59;;;;;;;15.00;10.32;;;19.70;99.90;;;;;;5102423;28;20031;-68
2022/04/14 10:32:25;;;;;;;19.45;13.32;;;19.70;99.90;;;;;;5119240;28;20047;-68
2022/04/14 10:34:52;;;;;;;17.65;10.68;;;20.30;99.90;;;;;;5120696;28;20049;-70
2022/04/14 10:37:26;;;;;;;14.15;10.23;;;20.30;99.90;;;;;;5119244;28;20315;-70
2022/04/14 10:39:52;;;;;;;14.35;10.30;;;20.50;99.90;;;;;;5121284;28;20402;-71
2022/04/14 10:42:26;;;;;;;21.08;12.27;;;20.10;99.90;;;;;;5123742;28;20040;-68
2022/04/14 10:44:53;;;;;;;13.40;10.00;;;20.50;99.90;;;;;;5120514;28;20054;-68
2022/04/14 10:47:50;;;;;;;16.00;9.73;;;20.80;99.90;;;;;;5121777;28;20123;-69
2022/04/14 10:50:32;;;;;;;16.13;9.80;;;20.90;99.90;;;;;;5119564;28;20092;-68
2022/04/14 10:53:29;;;;;;;15.57;11.02;;;20.90;99.90;;;;;;5119937;28;20348;-66
2022/04/14 10:55:54;;;;;;;16.35;10.23;;;20.50;99.90;;;;;;5120421;28;20344;-70
2022/04/14 10:58:26;;;;;;;12.52;8.60;;;19.90;99.90;;;;;;5103469;28;20027;-69
2022/04/14 11:00:53;;;;;;;10.77;8.52;;;20.00;99.90;;;;;;5121039;28;20320;-69
2022/04/14 11:03:19;;;;;;;10.20;8.07;;;21.00;99.90;;;;;;5119473;28;20035;-69
2022/04/14 11:05:49;;;;;;;11.35;7.80;;;21.70;99.90;;;;;;5107628;28;20024;-69
2022/04/14 11:08:32;;;;;;;10.00;8.05;;;22.40;99.90;;;;;;5119973;28;20039;-67
2022/04/14 11:11:10;;;;;;;9.93;6.88;;;23.70;99.90;;;;;;5119565;28;20036;-70
2022/04/14 11:13:50;;;;;;;9.98;6.80;;;23.50;99.90;;;;;;5120316;28;20027;-70
2022/04/14 11:16:46;;;;;;;13.38;7.00;;;22.40;99.90;;;;;;5123339;28;20267;-71
2022/04/14 11:19:22;;;;;;;9.43;6.75;;;22.50;99.90;;;;;;5124495;28;20036;-69
2022/04/14 11:22:08;;;;;;;10.75;5.88;;;23.30;99.90;;;;;;5120020;28;20032;-70
2022/04/14 11:24:36;;;;;;;8.48;5.72;;;24.70;99.90;;;;;;5119873;28;20023;-70
2022/04/14 11:27:17;;;;;;;10.05;6.35;;;25.50;99.90;;;;;;5120128;28;20020;-70
2022/04/14 11:29:48;;;;;;;7.60;5.82;;;25.20;99.90;;;;;;5121429;28;20291;-69
2022/04/14 11:32:47;;;;;;;7.55;5.95;;;24.40;99.90;;;;;;5119627;28;20264;-70
2022/04/14 11:35:16;;;;;;;8.95;6.53;;;24.10;99.90;;;;;;5074383;28;20040;-69
2022/04/14 11:37:49;;;;;;;13.23;6.60;;;23.60;99.90;;;;;;5117720;28;20391;-68
2022/04/14 11:40:23;;;;;;;9.68;6.60;;;23.10;99.90;;;;;;5117617;28;20115;-68
2022/04/14 11:42:55;;;;;;;10.73;7.90;;;22.60;99.90;;;;;;5118315;28;20062;-68
2022/04/14 11:45:28;;;;;;;13.13;9.60;;;22.50;99.90;;;;;;5118287;28;20409;-68
2022/04/14 11:48:00;;;;;;;11.48;9.20;;;22.40;99.90;;;;;;5118277;28;20031;-68
2022/04/14 11:50:28;;;;;;;10.73;8.90;;;22.30;99.90;;;;;;5118216;28;20050;-69
2022/04/14 11:52:57;;;;;;;13.10;8.93;;;22.20;99.90;;;;;;5117503;28;20387;-68
2022/04/14 11:55:43;;;;;;;9.35;8.30;;;22.40;99.90;;;;;;5118056;28;20035;-68
2022/04/14 11:58:14;;;;;;;13.77;9.07;;;22.80;99.90;;;;;;5118639;28;20035;-67
2022/04/14 12:00:48;;;;;;;11.30;8.25;;;22.90;99.90;;;;;;5117672;28;20089;-67
2022/04/14 12:03:15;;;;;;;11.85;7.55;;;22.80;99.90;;;;;;5118096;28;20023;-67
2022/04/14 12:05:51;;;;;;;12.20;8.00;;;22.50;99.90;;;;;;5117312;28;20368;-67
2022/04/14 12:08:17;;;;;;;9.15;7.03;;;22.30;99.90;;;;;;5117200;28;20036;-68
2022/04/14 12:10:44;;;;;;;11.68;8.10;;;22.20;99.90;;;;;;5117772;28;20087;-67
2022/04/14 12:13:11;;;;;;;11.50;6.80;;;22.10;99.90;;;;;;5117864;28;20405;-68
2022/04/14 12:15:38;;;;;;;11.15;7.20;;;21.80;99.90;;;;;;5117750;28;20028;-68
2022/04/14 12:18:12;;;;;;;9.38;6.32;;;21.90;99.90;;;;;;5118065;28;20434;-68
2022/04/14 12:20:40;;;;;;;7.70;5.82;;;21.90;99.90;;;;;;5117624;28;20177;-68
2022/04/14 12:23:10;;;;;;;11.75;6.53;;;22.00;99.90;;;;;;5117790;28;20039;-68
2022/04/14 12:25:37;;;;;;;9.55;5.05;;;22.20;99.90;;;;;;5117637;28;20033;-67
2022/04/14 12:28:06;;;;;;;12.40;5.60;;;22.00;99.90;;;;;;5116966;28;20031;-69
2022/04/14 12:30:33;;;;;;;9.68;5.82;;;22.00;99.90;;;;;;5100349;28;20023;-69
2022/04/14 12:33:00;;;;;;;11.50;6.50;;;21.70;99.90;;;;;;5117994;28;20051;-68
2022/04/14 12:35:36;;;;;;;11.50;6.22;;;21.50;99.90;;;;;;5116831;28;20122;-68